createdAt,value
2022-11-17T00:01:22.143Z,93196.13
2022-11-17T00:03:50.572Z,93185.97
2022-11-17T00:06:20.431Z,93181.91
2022-11-17T00:08:48.866Z,93137.66
2022-11-17T00:11:15.964Z,93106.84
2022-11-17T00:14:01.185Z,93106.13
2022-11-17T00:16:27.955Z,93168.69
2022-11-17T00:19:13.994Z,93174.56
2022-11-17T00:21:40.767Z,93197.88
2022-11-17T00:24:08.274Z,93203.41
2022-11-17T00:26:56.563Z,93209.97
2022-11-17T00:29:23.649Z,93159.63
2022-11-17T00:32:09.548Z,93121.44
2022-11-17T00:34:36.340Z,93130.06
2022-11-17T00:37:03.596Z,93140.34
2022-11-17T00:39:30.729Z,93160.50
2022-11-17T00:41:57.524Z,93176.00
2022-11-17T00:44:25.333Z,93188.06
2022-11-17T00:46:52.341Z,93175.59
2022-11-17T00:49:25.431Z,93177.22
2022-11-17T00:51:56.331Z,93181.94
2022-11-17T00:54:24.627Z,93154.91
2022-11-17T00:56:51.384Z,93151.53
2022-11-17T00:59:18.450Z,93120.72
2022-11-17T01:01:45.439Z,93115.63
2022-11-17T01:04:16.115Z,93143.44
2022-11-17T01:06:45.738Z,93162.88
2022-11-17T01:09:14.253Z,93159.13
2022-11-17T01:11:42.532Z,93137.03
2022-11-17T01:14:14.004Z,93161.56
2022-11-17T01:16:41.589Z,93165.63
2022-11-17T01:19:10.817Z,93146.59
2022-11-17T01:21:37.705Z,93109.53
2022-11-17T01:24:04.879Z,93109.59
2022-11-17T01:26:35.070Z,93144.97
2022-11-17T01:29:03.846Z,93171.31
2022-11-17T01:31:33.456Z,93156.31
2022-11-17T01:34:00.473Z,93179.13
2022-11-17T01:36:56.633Z,93151.31
2022-11-17T01:39:25.271Z,93167.78
2022-11-17T01:41:53.858Z,93190.50
2022-11-17T01:44:35.876Z,93139.16
2022-11-17T01:47:13.402Z,93160.84
2022-11-17T01:49:40.166Z,93158.72
2022-11-17T01:52:09.734Z,93117.75
2022-11-17T01:54:40.523Z,93116.00
2022-11-17T01:57:12.391Z,93134.41
2022-11-17T01:59:54.398Z,93121.34
2022-11-17T02:02:21.543Z,93029.78
2022-11-17T02:04:59.768Z,93072.06
2022-11-17T02:07:29.971Z,93054.34
2022-11-17T02:09:57.465Z,93043.63
2022-11-17T02:12:26.800Z,93037.63
2022-11-17T02:14:55.236Z,93089.41
2022-11-17T02:17:24.328Z,93116.69
2022-11-17T02:20:01.816Z,93085.72
2022-11-17T02:22:53.276Z,93047.75
2022-11-17T02:25:57.252Z,93008.53
2022-11-17T02:28:30.599Z,93066.22
2022-11-17T02:31:23.397Z,93069.41
2022-11-17T02:33:56.335Z,93003.81
2022-11-17T02:36:30.762Z,93013.88
2022-11-17T02:39:23.346Z,93005.91
2022-11-17T02:42:02.863Z,93029.28
2022-11-17T02:44:37.989Z,93025.16
2022-11-17T02:47:19.171Z,93056.31
2022-11-17T02:50:03.599Z,93021.19
2022-11-17T02:52:30.874Z,93040.41
2022-11-17T02:55:01.649Z,93046.22
2022-11-17T02:57:28.693Z,93030.53
2022-11-17T02:59:57.061Z,93058.66
2022-11-17T03:02:44.864Z,93064.91
2022-11-17T03:05:30.012Z,93017.31
2022-11-17T03:08:27.586Z,93046.97
2022-11-17T03:11:05.386Z,93027.19
2022-11-17T03:13:35.391Z,93022.53
2022-11-17T03:16:39.914Z,92983.22
2022-11-17T03:19:17.772Z,93002.94
2022-11-17T03:22:25.807Z,93028.09
2022-11-17T03:24:59.852Z,93008.47
2022-11-17T03:27:31.184Z,93005.13
2022-11-17T03:30:02.144Z,92979.00
2022-11-17T03:32:36.339Z,93010.16
2022-11-17T03:35:13.022Z,92996.75
2022-11-17T03:37:46.080Z,92993.81
2022-11-17T03:40:15.103Z,92987.13
2022-11-17T03:42:46.340Z,92972.78
2022-11-17T03:45:20.859Z,92976.59
2022-11-17T03:47:51.978Z,92962.91
2022-11-17T03:50:24.153Z,92963.78
2022-11-17T03:52:52.189Z,92975.56
2022-11-17T03:55:19.304Z,92960.44
2022-11-17T03:57:57.328Z,92985.56
2022-11-17T04:00:24.364Z,93002.97
2022-11-17T04:02:55.934Z,92975.25
2022-11-17T04:05:22.853Z,92981.19
2022-11-17T04:07:49.637Z,92981.63
2022-11-17T04:10:19.368Z,92963.13
2022-11-17T04:13:05.377Z,92963.56
2022-11-17T04:15:52.327Z,92911.31
2022-11-17T04:18:23.530Z,92908.03
2022-11-17T04:20:52.127Z,92927.09
2022-11-17T04:23:19.344Z,92910.16
2022-11-17T04:26:13.341Z,92915.16
2022-11-17T04:28:43.846Z,92914.34
2022-11-17T04:31:14.548Z,92937.41
2022-11-17T04:33:46.476Z,92961.34
2022-11-17T04:36:15.468Z,92959.88
2022-11-17T04:38:54.081Z,92958.94
2022-11-17T04:41:41.742Z,92976.41
2022-11-17T04:44:10.673Z,92965.00
2022-11-17T04:46:38.663Z,92976.41
2022-11-17T04:49:06.572Z,92953.50
2022-11-17T04:51:34.835Z,92940.00
2022-11-17T04:54:02.988Z,92944.66
2022-11-17T04:56:29.719Z,92914.88
2022-11-17T04:58:56.889Z,92935.25
2022-11-17T05:01:24.876Z,92918.22
2022-11-17T05:03:54.157Z,92905.63
2022-11-17T05:06:25.989Z,92880.75
2022-11-17T05:08:56.976Z,92921.09
2022-11-17T05:11:45.749Z,92936.59
2022-11-17T05:14:14.334Z,92909.38
2022-11-17T05:17:03.229Z,92875.41
2022-11-17T05:19:36.789Z,92886.94
2022-11-17T05:22:24.962Z,92888.63
2022-11-17T05:24:52.695Z,92894.81
2022-11-17T05:27:20.435Z,92901.88
2022-11-17T05:29:47.220Z,92905.88
2022-11-17T05:32:14.354Z,92934.41
2022-11-17T05:34:41.438Z,92949.59
2022-11-17T05:37:08.340Z,92953.72
2022-11-17T05:39:35.075Z,92950.16
2022-11-17T05:42:02.161Z,92960.53
2022-11-17T05:44:28.834Z,92938.84
2022-11-17T05:46:56.120Z,92960.22
2022-11-17T05:49:22.917Z,92966.19
2022-11-17T05:51:52.692Z,92973.03
2022-11-17T05:54:20.345Z,92991.69
2022-11-17T05:56:56.708Z,92997.13
2022-11-17T05:59:40.442Z,93026.53
2022-11-17T06:02:14.323Z,93028.78
2022-11-17T06:04:41.709Z,93039.59
2022-11-17T06:07:10.643Z,93040.00
2022-11-17T06:09:40.701Z,93004.34
2022-11-17T06:12:07.803Z,93026.25
2022-11-17T06:14:35.554Z,92976.22
2022-11-17T06:17:08.376Z,92938.84
2022-11-17T06:19:40.881Z,92989.44
2022-11-17T06:22:12.554Z,92957.31
2022-11-17T06:24:44.248Z,92947.38
2022-11-17T06:27:13.997Z,92959.34
2022-11-17T06:29:44.896Z,93005.13
2022-11-17T06:32:17.595Z,92998.34
2022-11-17T06:34:53.626Z,92981.66
2022-11-17T06:37:22.268Z,92951.25
2022-11-17T06:39:48.925Z,92941.78
2022-11-17T06:42:15.583Z,92970.47
2022-11-17T06:44:42.819Z,92979.03
2022-11-17T06:47:09.545Z,93008.66
2022-11-17T06:49:36.266Z,92980.97
2022-11-17T06:52:02.967Z,93010.94
2022-11-17T06:54:29.924Z,93024.03
2022-11-17T06:56:57.297Z,92995.06
2022-11-17T06:59:24.473Z,93021.84
2022-11-17T07:01:51.309Z,92984.19
2022-11-17T07:04:18.023Z,92983.66
2022-11-17T07:06:44.806Z,92976.06
2022-11-17T07:09:12.222Z,92978.47
2022-11-17T07:11:39.538Z,92985.88
2022-11-17T07:14:06.434Z,92970.63
2022-11-17T07:16:33.226Z,92994.28
2022-11-17T07:19:03.489Z,92981.28
2022-11-17T07:21:30.406Z,92929.59
2022-11-17T07:23:58.155Z,92948.66
2022-11-17T07:26:25.051Z,92954.59
2022-11-17T07:28:51.860Z,92955.44
2022-11-17T07:31:18.606Z,92934.94
2022-11-17T07:33:45.350Z,92974.22
2022-11-17T07:36:15.432Z,92980.78
2022-11-17T07:38:43.058Z,93018.75
2022-11-17T07:41:12.576Z,92977.06
2022-11-17T07:43:40.413Z,92983.34
2022-11-17T07:46:09.126Z,93030.81
2022-11-17T07:48:36.775Z,93026.81
2022-11-17T07:51:04.800Z,93006.81
2022-11-17T07:53:34.652Z,92990.00
2022-11-17T07:56:09.608Z,92989.34
2022-11-17T07:58:38.045Z,92979.56
2022-11-17T08:01:10.220Z,93004.03
2022-11-17T08:03:37.326Z,92975.09
2022-11-17T08:06:05.904Z,93017.78
2022-11-17T08:08:34.217Z,93022.28
2022-11-17T08:11:08.600Z,93030.78
2022-11-17T08:13:35.870Z,93022.75
2022-11-17T08:16:03.050Z,93024.34
2022-11-17T08:18:30.659Z,93035.69
2022-11-17T08:21:05.490Z,92947.22
2022-11-17T08:23:33.092Z,92922.66
2022-11-17T08:26:02.064Z,92908.31
2022-11-17T08:28:29.182Z,92967.41
2022-11-17T08:30:56.104Z,93018.38
2022-11-17T08:33:23.501Z,93025.44
2022-11-17T08:35:50.234Z,93011.47
2022-11-17T08:38:17.334Z,93025.53
2022-11-17T08:40:46.100Z,93057.97
2022-11-17T08:43:13.323Z,93061.41
2022-11-17T08:45:43.067Z,93023.91
2022-11-17T08:48:09.971Z,93042.88
2022-11-17T08:50:36.794Z,93040.38
2022-11-17T08:53:03.794Z,93072.59
2022-11-17T08:55:30.680Z,93106.47
2022-11-17T08:57:57.981Z,93043.53
2022-11-17T09:00:25.024Z,93037.34
2022-11-17T09:02:51.897Z,93044.19
2022-11-17T09:05:18.898Z,93082.53
2022-11-17T09:07:45.948Z,93084.13
2022-11-17T09:10:13.321Z,93120.31
2022-11-17T09:12:40.207Z,93251.63
2022-11-17T09:15:07.574Z,93229.88
2022-11-17T09:17:34.477Z,93096.50
2022-11-17T09:20:01.340Z,93075.91
2022-11-17T09:22:29.018Z,93146.78
2022-11-17T09:24:56.035Z,93102.78
2022-11-17T09:27:22.798Z,93167.69
2022-11-17T09:29:49.578Z,93192.00
2022-11-17T09:32:16.963Z,93095.78
2022-11-17T09:34:44.305Z,93038.13
2022-11-17T09:37:11.191Z,93082.25
2022-11-17T09:39:37.945Z,93104.59
2022-11-17T09:42:05.427Z,93197.88
2022-11-17T09:44:39.798Z,93094.19
2022-11-17T09:47:10.882Z,93138.09
2022-11-17T09:49:58.945Z,93131.63
2022-11-17T09:52:37.863Z,93186.59
2022-11-17T09:55:22.671Z,93163.78
2022-11-17T09:58:00.970Z,93105.75
2022-11-17T10:00:28.846Z,93178.22
2022-11-17T10:02:56.042Z,93169.72
2022-11-17T10:05:35.205Z,93173.16
2022-11-17T10:08:16.211Z,93199.41
2022-11-17T10:10:46.293Z,93154.59
2022-11-17T10:13:34.032Z,93094.66
2022-11-17T10:16:05.370Z,93082.59
2022-11-17T10:18:38.121Z,93066.84
2022-11-17T10:21:06.944Z,93063.03
2022-11-17T10:23:45.792Z,93016.28
2022-11-17T10:26:16.189Z,93043.00
2022-11-17T10:28:44.165Z,93037.69
2022-11-17T10:31:16.603Z,93057.47
2022-11-17T10:33:48.040Z,93108.91
2022-11-17T10:36:22.258Z,93071.25
2022-11-17T10:38:52.572Z,93047.91
2022-11-17T10:41:22.923Z,93059.94
2022-11-17T10:44:13.156Z,93072.38
2022-11-17T10:47:08.127Z,93079.78
2022-11-17T10:49:36.706Z,93047.69
2022-11-17T10:52:06.226Z,93050.81
2022-11-17T10:54:33.388Z,93045.97
2022-11-17T10:57:01.725Z,93094.53
2022-11-17T10:59:32.683Z,93062.31
2022-11-17T11:02:26.111Z,93084.13
2022-11-17T11:05:28.842Z,93053.06
2022-11-17T11:08:18.436Z,93077.84
2022-11-17T11:10:50.274Z,93058.66
2022-11-17T11:13:40.680Z,93089.22
2022-11-17T11:16:11.428Z,93055.91
2022-11-17T11:18:39.186Z,93089.50
2022-11-17T11:21:18.487Z,93093.88
2022-11-17T11:23:45.528Z,93073.03
2022-11-17T11:26:33.970Z,93047.91
2022-11-17T11:29:12.961Z,93039.47
2022-11-17T11:32:11.856Z,93062.16
2022-11-17T11:34:44.986Z,93074.91
2022-11-17T11:37:13.886Z,93056.25
2022-11-17T11:40:04.955Z,93017.66
2022-11-17T11:42:43.853Z,93036.56
2022-11-17T11:45:22.345Z,93009.59
2022-11-17T11:48:10.902Z,93026.91
2022-11-17T11:51:00.196Z,93045.91
2022-11-17T11:53:42.834Z,93027.84
2022-11-17T11:56:28.025Z,93013.50
2022-11-17T11:59:33.858Z,93038.97
2022-11-17T12:02:12.642Z,93048.00
2022-11-17T12:05:05.619Z,93060.38
2022-11-17T12:07:48.074Z,93062.47
2022-11-17T12:10:30.097Z,93056.53
2022-11-17T12:12:58.290Z,93049.59
2022-11-17T12:15:26.106Z,93087.25
2022-11-17T12:17:52.765Z,93097.38
2022-11-17T12:20:50.422Z,93066.16
2022-11-17T12:23:42.685Z,93038.75
2022-11-17T12:26:21.537Z,93040.50
2022-11-17T12:28:48.314Z,93054.09
2022-11-17T12:31:44.287Z,93056.84
2022-11-17T12:34:22.025Z,93063.75
2022-11-17T12:37:07.501Z,93043.91
2022-11-17T12:39:56.882Z,93067.44
2022-11-17T12:42:24.487Z,93041.34
2022-11-17T12:45:00.502Z,93022.44
2022-11-17T12:48:04.867Z,93009.09
2022-11-17T12:51:04.470Z,93044.19
2022-11-17T12:53:51.371Z,93039.03
2022-11-17T12:56:23.872Z,93046.06
2022-11-17T12:59:17.954Z,93039.94
2022-11-17T13:02:04.332Z,93075.03
2022-11-17T13:04:37.253Z,93062.91
2022-11-17T13:07:06.647Z,93048.94
2022-11-17T13:09:35.832Z,93104.81
2022-11-17T13:12:06.110Z,93064.25
2022-11-17T13:14:35.588Z,93082.63
2022-11-17T13:17:03.209Z,93070.25
2022-11-17T13:19:30.105Z,93043.88
2022-11-17T13:22:15.474Z,93050.84
2022-11-17T13:24:48.002Z,93061.91
2022-11-17T13:27:30.903Z,93048.56
2022-11-17T13:30:22.006Z,93015.03
2022-11-17T13:32:49.767Z,93029.66
2022-11-17T13:35:25.355Z,93058.97
2022-11-17T13:38:19.974Z,93055.81
2022-11-17T13:40:52.352Z,93054.84
2022-11-17T13:43:24.256Z,93052.25
2022-11-17T13:45:53.344Z,93068.75
2022-11-17T13:48:40.928Z,93054.44
2022-11-17T13:51:39.994Z,93053.50
2022-11-17T13:54:18.082Z,93004.69
2022-11-17T13:56:47.609Z,93052.09
2022-11-17T13:59:37.211Z,93048.31
2022-11-17T14:02:16.459Z,93055.47
2022-11-17T14:05:09.461Z,93049.50
2022-11-17T14:07:38.453Z,93053.28
2022-11-17T14:10:28.286Z,93065.00
2022-11-17T14:13:01.547Z,93046.31
2022-11-17T14:15:32.170Z,93068.72
2022-11-17T14:18:01.664Z,93061.84
2022-11-17T14:20:34.971Z,93062.28
2022-11-17T14:23:10.940Z,93063.94
2022-11-17T14:25:43.500Z,93073.00
2022-11-17T14:28:15.303Z,93078.53
2022-11-17T14:30:42.491Z,93032.91
2022-11-17T14:33:13.374Z,93053.25
2022-11-17T14:35:41.415Z,93048.44
2022-11-17T14:38:16.132Z,93063.28
2022-11-17T14:40:42.854Z,93042.44
2022-11-17T14:43:09.558Z,93048.53
2022-11-17T14:45:36.445Z,93081.25
2022-11-17T14:48:06.069Z,93061.84
2022-11-17T14:50:33.919Z,93033.31
2022-11-17T14:53:00.835Z,93028.00
2022-11-17T14:55:27.775Z,93040.81
2022-11-17T14:57:54.668Z,93063.69
2022-11-17T15:00:21.929Z,93079.00
2022-11-17T15:02:49.601Z,93075.53
2022-11-17T15:05:17.603Z,93054.06
2022-11-17T15:07:44.518Z,93069.81
2022-11-17T15:10:11.753Z,93039.69
2022-11-17T15:12:38.478Z,93052.63
2022-11-17T15:15:05.699Z,93004.72
2022-11-17T15:17:33.251Z,92981.03
2022-11-17T15:20:00.056Z,93029.75
2022-11-17T15:22:27.356Z,93029.25
2022-11-17T15:24:55.197Z,93058.63
2022-11-17T15:27:22.135Z,93054.16
2022-11-17T15:29:50.123Z,93055.50
2022-11-17T15:32:17.499Z,93031.16
2022-11-17T15:34:44.422Z,92986.50
2022-11-17T15:37:11.249Z,92995.09
2022-11-17T15:39:37.934Z,92974.66
2022-11-17T15:42:04.693Z,93028.31
2022-11-17T15:44:32.827Z,93011.63
2022-11-17T15:46:59.767Z,93009.75
2022-11-17T15:49:26.552Z,92995.28
2022-11-17T15:51:53.346Z,93009.75
2022-11-17T15:54:21.158Z,93028.97
2022-11-17T15:56:49.235Z,93047.03
2022-11-17T15:59:16.749Z,93034.81
2022-11-17T16:01:44.268Z,93036.75
2022-11-17T16:04:15.377Z,92983.13
2022-11-17T16:06:43.689Z,92979.81
2022-11-17T16:09:11.925Z,92980.13
2022-11-17T16:11:39.013Z,93021.38
2022-11-17T16:14:06.390Z,93023.50
2022-11-17T16:16:38.865Z,93065.28
2022-11-17T16:19:06.304Z,93050.47
2022-11-17T16:21:33.532Z,93024.63
2022-11-17T16:24:02.546Z,92988.38
2022-11-17T16:26:30.248Z,93057.09
2022-11-17T16:29:02.789Z,93058.94
2022-11-17T16:31:32.734Z,93044.69
2022-11-17T16:34:10.882Z,93008.41
2022-11-17T16:36:39.215Z,93014.44
2022-11-17T16:39:09.289Z,93032.25
2022-11-17T16:41:38.509Z,93035.53
2022-11-17T16:44:13.151Z,93031.56
2022-11-17T16:46:42.827Z,93004.34
2022-11-17T16:49:12.282Z,93028.34
2022-11-17T16:51:39.116Z,92979.59
2022-11-17T16:54:07.805Z,92936.28
2022-11-17T16:56:35.081Z,92949.28
2022-11-17T16:59:01.917Z,92951.63
2022-11-17T17:01:31.817Z,92955.78
2022-11-17T17:04:05.183Z,92951.34
2022-11-17T17:06:32.696Z,92985.66
2022-11-17T17:09:03.163Z,93018.38
2022-11-17T17:11:32.335Z,92991.09
2022-11-17T17:14:03.119Z,92954.56
2022-11-17T17:16:33.214Z,92974.19
2022-11-17T17:19:02.007Z,93010.53
2022-11-17T17:21:29.573Z,93011.28
2022-11-17T17:23:56.706Z,92979.91
2022-11-17T17:26:25.336Z,92970.84
2022-11-17T17:28:55.220Z,92993.56
2022-11-17T17:31:23.590Z,92971.63
2022-11-17T17:33:51.576Z,92956.38
2022-11-17T17:36:21.416Z,92933.41
2022-11-17T17:38:55.099Z,92968.13
2022-11-17T17:41:24.514Z,92995.16
2022-11-17T17:43:56.852Z,92968.72
2022-11-17T17:46:24.293Z,92968.16
2022-11-17T17:48:51.364Z,92987.28
2022-11-17T17:51:20.587Z,93014.47
2022-11-17T17:53:50.467Z,93036.00
2022-11-17T17:56:19.785Z,93000.72
2022-11-17T17:58:48.977Z,92984.38
2022-11-17T18:01:17.440Z,92976.63
2022-11-17T18:03:46.557Z,92939.72
2022-11-17T18:06:16.381Z,92979.09
2022-11-17T18:08:43.634Z,92947.41
2022-11-17T18:11:12.805Z,92940.31
2022-11-17T18:13:42.433Z,92953.84
2022-11-17T18:16:11.551Z,92993.91
2022-11-17T18:18:38.850Z,93024.84
2022-11-17T18:21:08.415Z,93009.28
2022-11-17T18:23:36.773Z,93012.22
2022-11-17T18:26:19.757Z,93015.88
2022-11-17T18:29:06.154Z,93031.78
2022-11-17T18:31:35.890Z,93036.41
2022-11-17T18:34:06.074Z,93033.69
2022-11-17T18:36:34.777Z,93048.13
2022-11-17T18:39:01.626Z,93057.00
2022-11-17T18:41:30.934Z,93017.53
2022-11-17T18:43:58.595Z,92993.84
2022-11-17T18:46:27.421Z,92970.28
2022-11-17T18:48:54.198Z,93031.25
2022-11-17T18:51:23.581Z,93035.50
2022-11-17T18:53:52.022Z,93026.56
2022-11-17T18:56:25.386Z,93014.25
2022-11-17T18:58:52.546Z,92954.38
2022-11-17T19:01:21.054Z,92975.09
2022-11-17T19:03:50.982Z,92975.44
2022-11-17T19:06:19.371Z,92995.81
2022-11-17T19:08:48.182Z,93009.31
2022-11-17T19:11:16.320Z,93020.44
2022-11-17T19:13:43.512Z,93004.00
2022-11-17T19:16:19.210Z,93002.50
2022-11-17T19:18:48.137Z,93032.25
2022-11-17T19:21:21.181Z,93031.66
2022-11-17T19:23:51.981Z,93013.19
2022-11-17T19:26:22.513Z,93020.59
2022-11-17T19:28:50.635Z,93008.41
2022-11-17T19:31:19.976Z,93023.56
2022-11-17T19:33:48.719Z,93003.09
2022-11-17T19:36:19.647Z,92971.53
2022-11-17T19:38:51.663Z,92971.88
2022-11-17T19:41:21.437Z,93005.84
2022-11-17T19:43:48.646Z,93006.22
2022-11-17T19:46:17.046Z,93010.09
2022-11-17T19:48:44.807Z,93007.22
2022-11-17T19:51:21.648Z,93008.31
2022-11-17T19:53:50.270Z,93028.53
2022-11-17T19:56:17.720Z,93021.88
2022-11-17T19:58:45.915Z,93007.81
2022-11-17T20:01:22.261Z,93024.25
2022-11-17T20:03:50.445Z,93044.38
2022-11-17T20:06:20.028Z,93037.16
2022-11-17T20:08:48.840Z,93018.53
2022-11-17T20:11:26.911Z,93002.13
2022-11-17T20:13:56.151Z,93020.22
2022-11-17T20:16:25.215Z,93041.09
2022-11-17T20:18:54.844Z,93073.06
2022-11-17T20:21:22.622Z,93086.63
2022-11-17T20:23:50.626Z,93051.38
2022-11-17T20:26:19.259Z,93059.41
2022-11-17T20:28:46.799Z,93062.25
2022-11-17T20:31:24.814Z,93079.38
2022-11-17T20:33:53.972Z,93049.53
2022-11-17T20:36:23.916Z,93023.53
2022-11-17T20:38:55.436Z,93038.88
2022-11-17T20:41:23.821Z,93056.06
2022-11-17T20:43:52.917Z,93059.41
2022-11-17T20:46:21.154Z,93047.53
2022-11-17T20:48:50.718Z,93035.16
2022-11-17T20:51:23.422Z,92991.38
2022-11-17T20:53:51.227Z,92976.53
2022-11-17T20:56:19.467Z,92995.47
2022-11-17T20:58:46.438Z,93031.13
2022-11-17T21:01:17.056Z,93019.22
2022-11-17T21:03:45.422Z,93047.53
2022-11-17T21:06:13.169Z,93061.38
2022-11-17T21:08:41.425Z,93066.28
2022-11-17T21:11:10.998Z,93037.09
2022-11-17T21:13:38.391Z,93010.56
2022-11-17T21:16:11.914Z,92999.72
2022-11-17T21:18:47.312Z,92988.84
2022-11-17T21:21:14.890Z,93059.75
2022-11-17T21:23:43.486Z,93062.75
2022-11-17T21:26:13.513Z,93050.06
2022-11-17T21:28:41.454Z,93050.00
2022-11-17T21:31:24.496Z,93020.00
2022-11-17T21:34:03.047Z,93041.28
2022-11-17T21:36:31.542Z,93028.81
2022-11-17T21:38:58.751Z,93019.72
2022-11-17T21:41:30.282Z,93016.59
2022-11-17T21:44:00.951Z,93003.13
2022-11-17T21:46:29.993Z,93033.66
2022-11-17T21:48:58.678Z,92999.41
2022-11-17T21:51:28.469Z,93059.34
2022-11-17T21:53:57.598Z,93028.19
2022-11-17T21:56:26.939Z,93049.06
2022-11-17T21:58:57.329Z,93028.09
2022-11-17T22:01:24.823Z,93000.38
2022-11-17T22:03:52.144Z,93010.44
2022-11-17T22:06:21.893Z,93005.06
2022-11-17T22:08:50.231Z,93035.63
2022-11-17T22:11:35.787Z,93059.16
2022-11-17T22:14:08.844Z,93100.50
2022-11-17T22:16:38.209Z,93054.28
2022-11-17T22:19:07.074Z,93069.16
2022-11-17T22:21:36.660Z,93075.44
2022-11-17T22:24:05.192Z,93047.88
2022-11-17T22:26:32.385Z,93099.66
2022-11-17T22:28:59.577Z,93068.81
2022-11-17T22:31:26.347Z,93096.69
2022-11-17T22:33:53.649Z,93091.28
2022-11-17T22:36:21.298Z,93089.75
2022-11-17T22:38:53.106Z,93035.97
2022-11-17T22:41:22.147Z,93070.66
2022-11-17T22:43:53.833Z,93094.31
2022-11-17T22:46:22.238Z,93099.41
2022-11-17T22:48:49.187Z,93113.84
2022-11-17T22:51:38.920Z,93095.88
2022-11-17T22:54:08.279Z,93100.34
2022-11-17T22:56:36.358Z,93132.69
2022-11-17T22:59:03.283Z,93119.75
2022-11-17T23:01:30.086Z,93085.56
2022-11-17T23:03:57.058Z,93107.28
2022-11-17T23:06:24.303Z,93169.44
2022-11-17T23:08:51.996Z,93158.16
2022-11-17T23:14:09.180Z,93097.44
2022-11-17T23:16:37.726Z,93133.94
2022-11-17T23:19:05.680Z,93094.16
2022-11-17T23:21:33.095Z,93130.03
2022-11-17T23:24:00.000Z,93100.84
2022-11-17T23:26:26.957Z,93135.84
2022-11-17T23:28:54.266Z,93115.22
2022-11-17T23:31:21.563Z,93121.00
2022-11-17T23:33:49.213Z,93123.81
2022-11-17T23:36:20.914Z,93079.94
2022-11-17T23:38:48.738Z,93137.41
2022-11-17T23:41:19.244Z,93115.59
2022-11-17T23:43:46.658Z,93107.66
2022-11-17T23:46:16.805Z,93098.81
2022-11-17T23:48:44.519Z,93090.22
2022-11-17T23:51:16.601Z,93064.88
2022-11-17T23:53:43.365Z,93086.97
2022-11-17T23:56:10.970Z,93106.03
2022-11-17T23:58:38.205Z,93107.09
